Time;durP1;ratioP1;P1;durP2;ratioP2;P2;SDS_P1;SDS_P2;PMS_P1;PMS_P2;Temp;Humidity;BMP_temperature;BMP_pressure;BME280_temperature;BME280_humidity;BME280_pressure;Samples;Min_cycle;Max_cycle;Signal;HPM_P1;HPM_P2
2022/10/08 00:00:04;;;;;;;1.70;1.43;;;13.80;99.90;;;;;;5016745;28;20421;-69
2022/10/08 00:02:30;;;;;;;3.43;1.50;;;13.80;99.90;;;;;;5016823;28;20414;-69
2022/10/08 00:04:56;;;;;;;3.03;2.67;;;13.80;99.90;;;;;;5016833;28;20506;-70
2022/10/08 00:07:22;;;;;;;2.37;2.17;;;13.80;99.90;;;;;;5016645;28;20203;-70
2022/10/08 00:09:48;;;;;;;1.43;1.33;;;13.80;99.90;;;;;;5016505;28;20834;-71
2022/10/08 00:12:13;;;;;;;3.50;2.10;;;13.80;99.90;;;;;;5016786;28;20175;-71
2022/10/08 00:14:39;;;;;;;1.23;1.13;;;13.80;99.90;;;;;;5016610;28;20182;-71
2022/10/08 00:17:05;;;;;;;17.67;1.70;;;13.80;99.90;;;;;;5016461;28;20190;-70
2022/10/08 00:19:31;;;;;;;2.10;1.90;;;13.80;99.90;;;;;;5016350;28;20833;-68
2022/10/08 00:21:57;;;;;;;0.70;0.70;;;13.80;99.90;;;;;;5016547;28;20183;-68
2022/10/08 00:24:23;;;;;;;1.63;1.53;;;13.90;99.90;;;;;;5016554;28;20180;-69
2022/10/08 00:26:49;;;;;;;1.77;1.67;;;13.90;99.90;;;;;;5016501;28;20665;-69
2022/10/08 00:29:18;;;;;;;1.07;1.00;;;13.80;99.90;;;;;;5016579;28;20962;-69
2022/10/08 00:31:46;;;;;;;0.83;0.83;;;13.80;99.90;;;;;;5016316;28;20399;-68
2022/10/08 00:34:15;;;;;;;1.80;1.70;;;13.90;99.90;;;;;;5016453;28;20410;-70
2022/10/08 00:36:41;;;;;;;2.30;1.30;;;13.90;99.90;;;;;;5016080;28;20439;-69
2022/10/08 00:39:18;;;;;;;1.20;1.20;;;14.00;99.90;;;;;;5016028;28;20848;-71
2022/10/08 00:41:46;;;;;;;3.43;1.97;;;14.00;99.90;;;;;;5016594;28;20872;-68
2022/10/08 00:44:53;;;;;;;1.00;1.00;;;14.10;99.90;;;;;;5016239;28;20751;-69
2022/10/08 00:47:37;;;;;;;0.70;0.70;;;14.00;99.90;;;;;;5015928;28;20473;-68
2022/10/08 00:50:05;;;;;;;0.43;0.40;;;14.00;99.90;;;;;;5015850;28;20481;-71
2022/10/08 00:52:34;;;;;;;2.80;1.10;;;14.00;99.90;;;;;;5015960;28;20441;-71
2022/10/08 00:55:05;;;;;;;1.10;0.87;;;14.00;99.90;;;;;;5015941;28;20909;-70
2022/10/08 00:57:33;;;;;;;1.37;1.30;;;14.00;99.90;;;;;;5015949;28;20486;-70
2022/10/08 01:00:05;;;;;;;1.57;1.03;;;14.00;99.90;;;;;;5015702;28;20503;-70
2022/10/08 01:02:31;;;;;;;0.93;0.93;;;14.00;99.90;;;;;;5015671;28;20414;-69
2022/10/08 01:04:57;;;;;;;10.13;1.73;;;14.10;99.90;;;;;;5015674;28;20464;-70
2022/10/08 01:07:39;;;;;;;1.13;1.03;;;14.20;99.90;;;;;;5015586;28;20195;-70
2022/10/08 01:10:19;;;;;;;2.00;0.70;;;14.20;99.90;;;;;;5014496;28;20539;-69
2022/10/08 01:12:59;;;;;;;4.10;1.87;;;14.10;99.90;;;;;;5015489;28;20439;-69
2022/10/08 01:15:59;;;;;;;1.50;1.50;;;14.20;99.90;;;;;;5015813;28;20422;-69
2022/10/08 01:18:50;;;;;;;1.27;0.70;;;14.20;99.90;;;;;;5015554;28;20387;-70
2022/10/08 01:22:05;;;;;;;1.10;1.10;;;14.30;99.90;;;;;;5015593;28;20925;-68
2022/10/08 01:27:31;;;;;;;0.93;0.93;;;14.40;99.90;;;;;;5013582;28;20485;-70
2022/10/08 01:30:04;;;;;;;0.93;0.93;;;14.40;99.90;;;;;;5013754;28;20465;-71
2022/10/08 01:32:40;;;;;;;1.07;1.07;;;14.40;99.90;;;;;;5015261;28;20406;-70
2022/10/08 01:35:11;;;;;;;0.93;0.93;;;14.40;99.90;;;;;;5015081;28;20395;-70
2022/10/08 01:37:41;;;;;;;1.00;1.00;;;14.40;99.90;;;;;;5015090;28;20477;-69
2022/10/08 01:40:12;;;;;;;3.50;3.20;;;14.40;99.90;;;;;;5015127;28;20409;-70
2022/10/08 01:42:40;;;;;;;0.70;0.70;;;14.40;99.90;;;;;;5015313;28;20398;-71
2022/10/08 01:45:14;;;;;;;1.60;1.37;;;14.50;99.90;;;;;;5014902;28;20495;-70
2022/10/08 01:47:42;;;;;;;0.80;0.80;;;14.50;99.90;;;;;;5014896;28;20458;-70
2022/10/08 01:50:16;;;;;;;1.60;1.50;;;14.50;99.90;;;;;;5014601;28;20465;-69
2022/10/08 01:52:49;;;;;;;0.90;0.90;;;14.60;99.90;;;;;;5015067;28;20483;-69
2022/10/08 01:55:26;;;;;;;0.80;0.80;;;14.40;99.90;;;;;;5014917;28;20457;-71
2022/10/08 01:57:56;;;;;;;0.97;0.97;;;14.60;99.90;;;;;;5014829;28;20474;-69
2022/10/08 02:00:22;;;;;;;0.70;0.70;;;14.60;99.90;;;;;;5014568;28;20422;-68
2022/10/08 02:02:48;;;;;;;2.53;1.57;;;14.70;99.90;;;;;;5014733;28;20416;-71
2022/10/08 02:05:13;;;;;;;0.57;0.57;;;14.80;99.90;;;;;;5014716;28;20177;-68
2022/10/08 02:07:41;;;;;;;0.63;0.63;;;14.70;99.90;;;;;;5014674;28;20278;-70
2022/10/08 02:10:10;;;;;;;1.60;1.50;;;14.70;99.90;;;;;;5014353;28;20207;-71
2022/10/08 02:12:37;;;;;;;1.60;1.50;;;14.60;99.90;;;;;;5013345;28;20772;-68
2022/10/08 02:15:04;;;;;;;2.87;2.67;;;14.60;99.90;;;;;;5014525;28;20407;-70
2022/10/08 02:17:48;;;;;;;2.30;1.70;;;14.60;99.90;;;;;;5014323;28;20415;-70
2022/10/08 02:20:36;;;;;;;2.20;1.80;;;14.60;99.90;;;;;;5014216;28;20526;-70
2022/10/08 02:23:22;;;;;;;1.20;1.10;;;14.70;99.90;;;;;;5014510;28;20417;-69
2022/10/08 02:25:50;;;;;;;1.10;1.10;;;14.70;99.90;;;;;;5014537;28;20426;-69
2022/10/08 02:28:24;;;;;;;2.20;2.00;;;14.70;99.90;;;;;;5014224;28;20837;-70
2022/10/08 02:31:12;;;;;;;1.07;1.00;;;14.80;99.90;;;;;;5014035;28;20457;-71
2022/10/08 02:34:07;;;;;;;0.70;0.70;;;14.90;99.90;;;;;;5014279;28;20809;-71
2022/10/08 02:36:42;;;;;;;0.87;0.87;;;14.90;99.90;;;;;;5014006;28;20428;-69
2022/10/08 02:39:11;;;;;;;0.80;0.80;;;14.80;99.90;;;;;;5013946;28;20417;-69
2022/10/08 02:41:43;;;;;;;1.37;1.37;;;14.80;99.90;;;;;;5014092;28;20425;-70
2022/10/08 02:44:16;;;;;;;0.80;0.80;;;14.80;99.90;;;;;;5014279;28;20413;-69
2022/10/08 02:46:46;;;;;;;2.83;2.70;;;14.90;99.90;;;;;;5013921;28;20878;-68
2022/10/08 02:49:16;;;;;;;1.30;1.30;;;15.00;99.90;;;;;;5014028;28;20485;-69
2022/10/08 02:51:49;;;;;;;1.27;1.27;;;15.10;99.90;;;;;;5014085;28;20894;-68
2022/10/08 02:54:18;;;;;;;1.67;1.57;;;15.00;99.90;;;;;;5014181;28;20445;-70
2022/10/08 02:57:20;;;;;;;0.70;0.70;;;15.00;99.90;;;;;;5013947;28;20437;-70
2022/10/08 02:59:46;;;;;;;1.37;1.27;;;15.10;99.90;;;;;;5011629;28;20453;-69
2022/10/08 03:02:44;;;;;;;2.90;1.87;;;15.00;99.90;;;;;;5013954;28;20466;-72
2022/10/08 03:05:15;;;;;;;1.53;1.43;;;15.10;99.90;;;;;;5004791;28;20428;-70
2022/10/08 03:07:42;;;;;;;1.97;1.87;;;15.10;99.90;;;;;;5013763;28;20394;-71
2022/10/08 03:10:08;;;;;;;3.43;1.57;;;15.10;99.90;;;;;;5012293;28;20481;-69
2022/10/08 03:12:34;;;;;;;0.60;0.60;;;15.20;99.90;;;;;;5013744;28;20454;-71
2022/10/08 03:15:00;;;;;;;2.90;1.20;;;15.20;99.90;;;;;;5013788;28;20412;-72
2022/10/08 03:17:34;;;;;;;1.40;1.30;;;15.20;99.90;;;;;;5013567;28;20607;-68
2022/10/08 03:20:05;;;;;;;0.53;0.53;;;15.10;99.90;;;;;;5013742;28;20188;-69
2022/10/08 03:22:32;;;;;;;7.93;2.13;;;15.20;99.90;;;;;;5013519;28;20405;-70
2022/10/08 03:24:57;;;;;;;1.83;1.00;;;15.20;99.90;;;;;;5013923;28;21026;-71
2022/10/08 03:27:23;;;;;;;1.33;0.70;;;15.20;99.90;;;;;;5013466;28;20521;-71
2022/10/08 03:29:50;;;;;;;2.40;1.03;;;15.30;99.90;;;;;;5013266;28;20199;-69
2022/10/08 03:32:16;;;;;;;0.80;0.80;;;15.30;99.90;;;;;;5014890;28;20408;-69
2022/10/08 03:34:41;;;;;;;0.87;0.70;;;15.30;99.90;;;;;;5017332;28;20491;-70
2022/10/08 03:37:07;;;;;;;4.67;1.90;;;15.30;99.90;;;;;;5017272;28;20267;-69
2022/10/08 03:39:33;;;;;;;3.33;1.60;;;15.30;99.90;;;;;;5017259;28;20714;-69
2022/10/08 03:41:58;;;;;;;0.57;0.57;;;15.30;99.90;;;;;;5017351;28;20180;-68
2022/10/08 03:44:24;;;;;;;3.17;2.13;;;15.30;99.90;;;;;;5017410;28;20701;-70
2022/10/08 03:46:49;;;;;;;2.00;1.47;;;15.30;99.90;;;;;;5017007;28;20269;-68
2022/10/08 03:49:15;;;;;;;0.90;0.63;;;15.30;99.90;;;;;;5016885;28;20203;-71
2022/10/08 03:51:41;;;;;;;0.90;0.90;;;15.40;99.90;;;;;;5017085;28;20190;-68
2022/10/08 03:54:06;;;;;;;0.83;0.83;;;15.40;99.90;;;;;;5017147;28;20173;-71
2022/10/08 03:56:32;;;;;;;1.30;1.23;;;15.30;99.90;;;;;;5016869;28;20617;-71
2022/10/08 03:58:59;;;;;;;1.23;1.13;;;15.30;99.90;;;;;;5016764;28;20229;-72
2022/10/08 04:01:26;;;;;;;2.20;2.10;;;15.30;99.90;;;;;;5017009;28;20275;-71
2022/10/08 04:03:52;;;;;;;1.37;1.27;;;15.30;99.90;;;;;;5017047;28;20904;-71
2022/10/08 04:06:18;;;;;;;2.33;2.13;;;15.40;99.90;;;;;;5016822;28;20437;-71
2022/10/08 04:08:43;;;;;;;1.40;1.40;;;15.30;99.90;;;;;;5016741;28;20883;-69
2022/10/08 04:11:14;;;;;;;1.00;0.90;;;15.40;99.90;;;;;;5016670;28;20172;-70
2022/10/08 04:13:40;;;;;;;0.90;0.90;;;15.40;99.90;;;;;;5016908;28;20200;-68
2022/10/08 04:16:09;;;;;;;4.33;1.20;;;15.40;99.90;;;;;;5016726;28;20433;-70
2022/10/08 04:18:34;;;;;;;0.47;0.47;;;15.40;99.90;;;;;;5016572;28;20621;-69
2022/10/08 04:21:03;;;;;;;1.20;1.20;;;15.40;99.90;;;;;;5016448;28;20501;-71
2022/10/08 04:23:31;;;;;;;1.30;0.97;;;15.40;99.90;;;;;;5016732;28;20236;-71
2022/10/08 04:25:57;;;;;;;0.57;0.57;;;15.50;99.90;;;;;;5016524;28;20484;-68
2022/10/08 04:28:23;;;;;;;1.63;1.53;;;15.40;99.90;;;;;;5016342;28;20413;-71
2022/10/08 04:30:59;;;;;;;0.90;0.87;;;15.30;99.90;;;;;;5016065;28;20221;-70
2022/10/08 04:33:27;;;;;;;3.50;2.43;;;15.30;99.90;;;;;;5016539;28;20184;-69
2022/10/08 04:35:53;;;;;;;1.33;0.83;;;15.30;99.90;;;;;;5016203;28;20434;-71
2022/10/08 04:38:19;;;;;;;1.30;1.20;;;15.30;99.90;;;;;;5016318;28;20412;-69
2022/10/08 04:40:45;;;;;;;1.40;1.30;;;15.30;99.90;;;;;;5016216;28;20406;-71
2022/10/08 04:43:11;;;;;;;2.20;1.60;;;15.40;99.90;;;;;;5015273;28;20422;-68
2022/10/08 04:45:44;;;;;;;1.33;1.23;;;15.30;99.90;;;;;;5015654;28;20195;-71
2022/10/08 04:48:13;;;;;;;0.90;0.90;;;15.30;99.90;;;;;;5014856;28;20458;-72
2022/10/08 04:50:38;;;;;;;1.07;0.97;;;15.30;99.90;;;;;;5015870;28;20958;-71
2022/10/08 04:53:05;;;;;;;2.07;1.97;;;15.30;99.90;;;;;;5016112;28;20484;-70
2022/10/08 04:55:31;;;;;;;2.77;1.93;;;15.30;99.90;;;;;;5015997;28;20721;-71
2022/10/08 04:57:57;;;;;;;1.13;1.10;;;15.40;99.90;;;;;;5016069;28;20459;-68
2022/10/08 05:00:23;;;;;;;1.23;1.13;;;15.40;99.90;;;;;;5015651;28;20421;-69
2022/10/08 05:02:48;;;;;;;2.60;2.40;;;15.30;99.90;;;;;;5015972;28;20195;-69
2022/10/08 05:05:15;;;;;;;0.80;0.80;;;15.30;99.90;;;;;;5015772;28;20179;-70
2022/10/08 05:07:40;;;;;;;3.50;2.00;;;15.40;99.90;;;;;;5015657;28;20186;-69
2022/10/08 05:10:06;;;;;;;2.20;2.03;;;15.40;99.90;;;;;;5015378;28;20453;-68
2022/10/08 05:12:32;;;;;;;1.10;1.00;;;15.40;99.90;;;;;;5015543;28;20541;-70
2022/10/08 05:14:58;;;;;;;1.30;1.30;;;15.50;99.90;;;;;;5015744;28;20406;-71
2022/10/08 05:17:23;;;;;;;0.90;0.90;;;15.50;99.90;;;;;;5015407;28;20188;-70
2022/10/08 05:19:49;;;;;;;2.43;2.27;;;15.50;99.90;;;;;;5015241;28;20656;-70
2022/10/08 05:22:15;;;;;;;1.67;1.17;;;15.40;99.90;;;;;;5015524;28;20175;-68
2022/10/08 05:24:40;;;;;;;1.70;1.60;;;15.40;99.90;;;;;;5015503;28;20573;-70
2022/10/08 05:27:06;;;;;;;3.50;1.80;;;15.30;99.90;;;;;;5015647;28;20198;-69
2022/10/08 05:29:32;;;;;;;1.70;1.60;;;15.30;99.90;;;;;;5015207;28;20201;-71
2022/10/08 05:31:57;;;;;;;0.70;0.60;;;15.40;99.90;;;;;;5015249;28;20626;-69
2022/10/08 05:34:23;;;;;;;2.17;2.03;;;15.40;99.90;;;;;;5015227;28;20181;-70
2022/10/08 05:36:49;;;;;;;1.43;1.37;;;15.50;99.90;;;;;;5015124;28;20203;-71
2022/10/08 05:39:14;;;;;;;1.80;1.70;;;15.40;99.90;;;;;;5014852;28;20252;-69
2022/10/08 05:41:40;;;;;;;0.83;0.83;;;15.50;99.90;;;;;;5015238;28;20181;-71
2022/10/08 05:44:07;;;;;;;1.43;1.33;;;15.50;99.90;;;;;;5015002;28;20205;-71
2022/10/08 05:46:34;;;;;;;2.23;1.17;;;15.50;99.90;;;;;;5014896;28;20209;-69
2022/10/08 05:49:01;;;;;;;1.93;1.40;;;15.50;99.90;;;;;;5014755;28;20778;-71
2022/10/08 05:51:28;;;;;;;1.77;1.67;;;15.50;99.90;;;;;;5014972;28;20405;-70
2022/10/08 05:53:55;;;;;;;1.03;1.03;;;15.50;99.90;;;;;;5014921;28;20440;-68
2022/10/08 05:56:23;;;;;;;1.83;1.73;;;15.50;99.90;;;;;;5014365;28;20440;-71
2022/10/08 05:58:50;;;;;;;0.90;0.90;;;15.50;99.90;;;;;;5014552;28;20505;-68
2022/10/08 06:01:20;;;;;;;2.47;2.37;;;15.40;99.90;;;;;;5014908;28;20501;-69
2022/10/08 06:03:51;;;;;;;1.07;1.00;;;15.40;99.90;;;;;;5014970;28;20946;-71
2022/10/08 06:06:17;;;;;;;1.00;1.00;;;15.40;99.90;;;;;;5014557;28;20435;-70
2022/10/08 06:08:42;;;;;;;3.30;1.80;;;15.50;99.90;;;;;;5014772;28;20808;-69
2022/10/08 06:11:08;;;;;;;2.70;2.50;;;15.60;99.90;;;;;;5014361;28;20418;-70
2022/10/08 06:13:34;;;;;;;1.70;1.17;;;15.70;99.90;;;;;;5014508;28;20457;-70
2022/10/08 06:16:03;;;;;;;2.40;2.00;;;15.70;99.90;;;;;;5014451;28;20562;-69
2022/10/08 06:18:47;;;;;;;0.50;0.50;;;15.60;99.90;;;;;;5014366;28;20910;-71
2022/10/08 06:21:15;;;;;;;1.90;1.40;;;15.60;99.90;;;;;;5014493;28;20414;-71
2022/10/08 06:23:46;;;;;;;0.63;0.63;;;15.60;99.90;;;;;;5014322;28;20871;-70
2022/10/08 06:26:12;;;;;;;2.07;1.83;;;15.60;99.90;;;;;;5014641;28;20568;-68
2022/10/08 06:28:38;;;;;;;1.53;1.17;;;15.60;99.90;;;;;;5012917;28;20462;-70
2022/10/08 06:31:05;;;;;;;0.70;0.57;;;15.60;99.90;;;;;;5014080;28;20211;-69
2022/10/08 06:33:31;;;;;;;1.37;1.27;;;15.60;99.90;;;;;;5014244;28;20422;-69
2022/10/08 06:36:12;;;;;;;1.47;1.37;;;15.70;99.90;;;;;;5014217;28;20433;-69
2022/10/08 06:38:37;;;;;;;1.40;1.07;;;15.60;99.90;;;;;;5014132;28;20758;-71
2022/10/08 06:41:03;;;;;;;2.00;1.90;;;15.60;99.90;;;;;;5013996;28;20406;-69
2022/10/08 06:43:29;;;;;;;5.40;1.67;;;15.60;99.90;;;;;;5013959;28;20250;-68
2022/10/08 06:45:55;;;;;;;0.80;0.80;;;15.50;99.90;;;;;;5013939;28;20721;-70
2022/10/08 06:48:22;;;;;;;1.30;1.30;;;15.50;99.90;;;;;;5013881;28;20177;-68
2022/10/08 06:50:47;;;;;;;1.33;1.30;;;15.50;99.90;;;;;;5013871;28;20454;-71
2022/10/08 06:53:13;;;;;;;1.27;1.27;;;15.50;99.90;;;;;;5014260;28;20934;-70
2022/10/08 06:55:40;;;;;;;1.13;1.13;;;15.60;99.90;;;;;;5013894;28;20244;-71
2022/10/08 06:58:05;;;;;;;1.13;0.70;;;15.60;99.90;;;;;;5013809;28;20833;-70
2022/10/08 07:00:32;;;;;;;1.87;1.77;;;15.70;99.90;;;;;;5013577;28;20445;-68
2022/10/08 07:02:57;;;;;;;1.30;1.20;;;15.70;99.90;;;;;;5013775;28;20171;-70
2022/10/08 07:05:23;;;;;;;3.50;2.50;;;15.80;99.90;;;;;;5013671;28;20413;-67
2022/10/08 07:07:49;;;;;;;0.90;0.90;;;15.80;99.90;;;;;;5012879;28;20183;-68
2022/10/08 07:10:15;;;;;;;2.63;1.77;;;15.90;99.90;;;;;;5013560;28;20792;-72
2022/10/08 07:12:40;;;;;;;1.00;1.00;;;16.00;99.90;;;;;;5013812;28;20254;-69
2022/10/08 07:15:06;;;;;;;2.40;1.90;;;16.10;99.90;;;;;;5013811;28;20590;-69
2022/10/08 07:17:32;;;;;;;0.70;0.60;;;16.10;99.90;;;;;;5013501;28;20177;-71
2022/10/08 07:19:58;;;;;;;1.27;0.70;;;16.10;99.90;;;;;;5013625;28;20494;-69
2022/10/08 07:22:24;;;;;;;0.90;0.90;;;16.00;99.90;;;;;;5013615;28;20205;-69
2022/10/08 07:24:50;;;;;;;1.47;1.37;;;16.10;99.90;;;;;;5012355;28;20687;-68
2022/10/08 07:27:17;;;;;;;0.80;0.80;;;16.10;99.90;;;;;;5013486;28;20468;-71
2022/10/08 07:29:42;;;;;;;1.00;1.00;;;16.10;99.90;;;;;;5013348;28;20457;-68
2022/10/08 07:32:08;;;;;;;1.93;1.20;;;16.10;99.90;;;;;;5013685;28;20403;-71
2022/10/08 07:34:34;;;;;;;2.13;2.03;;;16.00;99.90;;;;;;5013493;28;20166;-68
2022/10/08 07:36:59;;;;;;;0.97;0.87;;;15.90;99.90;;;;;;5013346;28;20656;-69
2022/10/08 07:39:26;;;;;;;0.70;0.70;;;15.90;99.90;;;;;;5013291;28;20181;-70
2022/10/08 07:41:52;;;;;;;1.43;1.00;;;15.80;99.90;;;;;;5013488;28;20198;-69
2022/10/08 07:44:18;;;;;;;2.30;2.20;;;15.80;99.90;;;;;;5013539;28;20408;-71
2022/10/08 07:46:48;;;;;;;2.90;2.70;;;15.90;99.90;;;;;;5013469;28;20450;-68
2022/10/08 07:49:16;;;;;;;0.70;0.70;;;15.90;99.90;;;;;;5013263;28;20452;-71
2022/10/08 07:51:41;;;;;;;2.60;1.47;;;16.00;99.90;;;;;;5013384;28;20409;-69
2022/10/08 07:54:10;;;;;;;0.90;0.90;;;16.00;99.90;;;;;;5013503;28;20457;-68
2022/10/08 07:56:36;;;;;;;0.80;0.80;;;16.20;99.90;;;;;;5013318;28;20183;-69
2022/10/08 07:59:03;;;;;;;1.23;0.97;;;16.20;99.90;;;;;;5012967;28;20781;-68
2022/10/08 08:01:30;;;;;;;2.10;0.90;;;16.30;99.90;;;;;;5011970;28;20476;-69
2022/10/08 08:04:02;;;;;;;1.90;1.13;;;16.30;99.90;;;;;;5013428;28;20489;-71
2022/10/08 08:06:29;;;;;;;0.50;0.50;;;16.40;99.90;;;;;;5013389;28;20430;-69
2022/10/08 08:08:54;;;;;;;0.90;0.90;;;16.50;99.90;;;;;;5012957;28;20903;-67
2022/10/08 08:11:23;;;;;;;1.57;1.47;;;16.60;99.90;;;;;;5013202;28;20438;-69
2022/10/08 08:13:49;;;;;;;0.93;0.93;;;16.70;99.90;;;;;;5013589;28;20164;-70
2022/10/08 08:16:20;;;;;;;3.13;2.07;;;16.90;99.90;;;;;;5013178;28;20442;-69
2022/10/08 08:18:49;;;;;;;0.60;0.50;;;17.10;99.90;;;;;;5014904;28;20394;-71
2022/10/08 08:21:17;;;;;;;2.60;1.27;;;17.30;99.90;;;;;;5016797;28;20763;-72
2022/10/08 08:23:49;;;;;;;1.37;1.20;;;17.50;99.90;;;;;;5016454;28;20441;-71
2022/10/08 08:26:19;;;;;;;0.77;0.77;;;17.70;99.90;;;;;;5016869;28;20480;-70
2022/10/08 08:28:54;;;;;;;0.70;0.70;;;17.90;99.90;;;;;;5016652;28;20411;-72
2022/10/08 08:31:34;;;;;;;0.70;0.70;;;18.00;99.90;;;;;;5016501;28;20410;-68
2022/10/08 08:34:02;;;;;;;0.57;0.57;;;17.90;99.90;;;;;;5016580;28;20402;-69
2022/10/08 08:36:34;;;;;;;1.23;1.23;;;17.90;99.90;;;;;;5016269;28;20789;-70
2022/10/08 08:39:00;;;;;;;0.80;0.80;;;17.90;99.90;;;;;;5016310;28;20402;-70
2022/10/08 08:42:02;;;;;;;0.50;0.50;;;17.90;99.90;;;;;;5016409;28;20390;-70
2022/10/08 08:44:36;;;;;;;1.90;0.80;;;18.00;99.90;;;;;;5016421;28;20409;-69
2022/10/08 08:47:31;;;;;;;1.67;1.27;;;18.20;99.90;;;;;;5015974;28;20493;-71
2022/10/08 08:50:12;;;;;;;0.70;0.70;;;18.30;99.90;;;;;;5015816;28;20556;-69
2022/10/08 08:52:41;;;;;;;0.93;0.57;;;18.30;99.50;;;;;;5014889;28;20503;-69
2022/10/08 08:55:15;;;;;;;0.50;0.50;;;18.30;98.50;;;;;;5016139;28;20498;-70
2022/10/08 08:57:57;;;;;;;0.40;0.40;;;18.30;98.70;;;;;;5016104;28;20772;-68
2022/10/08 09:00:28;;;;;;;0.80;0.80;;;18.30;98.40;;;;;;5015952;28;20412;-71
2022/10/08 09:02:58;;;;;;;0.50;0.50;;;18.20;98.30;;;;;;5016389;28;20409;-69
2022/10/08 09:05:25;;;;;;;0.50;0.50;;;18.10;98.40;;;;;;5015812;28;20435;-68
2022/10/08 09:07:59;;;;;;;0.60;0.60;;;18.10;98.70;;;;;;5015652;28;20963;-68
2022/10/08 09:10:53;;;;;;;0.63;0.60;;;18.10;98.80;;;;;;5015549;28;20854;-71
2022/10/08 09:13:24;;;;;;;1.63;1.40;;;18.10;98.60;;;;;;5015789;28;20460;-69
2022/10/08 09:15:51;;;;;;;0.50;0.50;;;18.00;98.20;;;;;;5015427;28;20421;-68
2022/10/08 09:18:17;;;;;;;0.77;0.77;;;17.90;98.40;;;;;;5015484;28;20971;-69
2022/10/08 09:20:43;;;;;;;0.30;0.30;;;17.80;98.40;;;;;;5015294;28;20438;-71
2022/10/08 09:23:16;;;;;;;0.50;0.50;;;17.70;98.60;;;;;;5015625;28;20211;-71
2022/10/08 09:25:47;;;;;;;0.50;0.50;;;17.60;98.60;;;;;;5015539;28;20784;-70
2022/10/08 09:28:51;;;;;;;0.60;0.60;;;17.40;98.80;;;;;;5015338;28;20728;-70
2022/10/08 09:31:29;;;;;;;0.63;0.50;;;17.50;99.00;;;;;;5014680;28;20411;-71
2022/10/08 09:34:21;;;;;;;0.60;0.60;;;17.60;99.30;;;;;;5015306;28;20401;-70
2022/10/08 09:36:51;;;;;;;0.40;0.40;;;17.60;99.20;;;;;;5014776;28;20435;-68
2022/10/08 09:39:23;;;;;;;3.97;1.10;;;17.60;99.10;;;;;;5015146;28;20426;-69
2022/10/08 09:42:16;;;;;;;0.50;0.50;;;17.50;98.80;;;;;;5015064;28;20434;-70
2022/10/08 09:44:44;;;;;;;0.50;0.50;;;17.50;98.30;;;;;;5010631;28;20419;-71
2022/10/08 09:47:12;;;;;;;0.93;0.87;;;17.50;98.70;;;;;;5014798;28;20453;-67
2022/10/08 09:49:38;;;;;;;0.40;0.40;;;17.50;98.90;;;;;;5014849;28;20837;-69
2022/10/08 09:52:18;;;;;;;0.40;0.40;;;17.60;98.50;;;;;;5015265;28;20416;-69
2022/10/08 09:54:56;;;;;;;0.50;0.50;;;17.60;98.40;;;;;;5014948;28;20883;-70
2022/10/08 09:57:22;;;;;;;1.03;0.83;;;17.60;98.70;;;;;;5014745;28;20440;-70
2022/10/08 09:59:55;;;;;;;0.60;0.60;;;17.70;98.50;;;;;;5014594;28;20783;-70
2022/10/08 10:02:33;;;;;;;0.70;0.60;;;17.80;98.30;;;;;;5014700;28;20182;-70
2022/10/08 10:05:01;;;;;;;1.17;1.07;;;17.80;98.10;;;;;;5014775;28;20406;-68
2022/10/08 10:07:56;;;;;;;0.60;0.60;;;17.90;98.20;;;;;;5014508;28;20466;-70
2022/10/08 10:10:34;;;;;;;0.90;0.90;;;18.00;98.40;;;;;;5005816;28;20486;-68
2022/10/08 10:13:08;;;;;;;0.60;0.60;;;18.20;98.20;;;;;;5014654;28;20774;-71
2022/10/08 10:15:39;;;;;;;0.50;0.50;;;18.30;97.40;;;;;;5014439;28;20436;-72
2022/10/08 10:18:12;;;;;;;0.70;0.70;;;18.40;97.60;;;;;;5014432;28;20394;-70
2022/10/08 10:20:40;;;;;;;0.70;0.70;;;18.30;96.20;;;;;;5014157;28;20502;-72
2022/10/08 10:23:11;;;;;;;0.80;0.80;;;18.20;96.50;;;;;;5014449;28;20405;-70
2022/10/08 10:26:04;;;;;;;0.80;0.73;;;18.20;97.00;;;;;;5014299;28;20456;-71
2022/10/08 10:28:41;;;;;;;1.13;0.70;;;18.10;96.20;;;;;;5014416;28;20388;-71
2022/10/08 10:31:19;;;;;;;2.17;1.20;;;18.10;96.20;;;;;;5014195;28;20452;-70
2022/10/08 10:33:49;;;;;;;0.40;0.40;;;18.10;96.90;;;;;;5014234;28;20399;-71
2022/10/08 10:36:17;;;;;;;0.43;0.43;;;18.00;96.10;;;;;;5014056;28;20426;-69
2022/10/08 10:39:02;;;;;;;1.00;1.00;;;18.00;96.50;;;;;;5014182;28;20418;-69
2022/10/08 10:42:19;;;;;;;0.57;0.50;;;18.00;96.20;;;;;;5014136;28;20412;-71
2022/10/08 10:44:56;;;;;;;2.00;1.90;;;17.90;96.50;;;;;;4996988;28;20414;-70
2022/10/08 10:47:24;;;;;;;0.57;0.57;;;17.90;96.20;;;;;;5013864;28;20577;-71
2022/10/08 10:49:51;;;;;;;1.13;1.10;;;17.80;96.50;;;;;;5013766;28;21057;-69
2022/10/08 10:52:32;;;;;;;1.30;1.10;;;17.80;95.70;;;;;;5013928;28;20395;-70
2022/10/08 10:55:26;;;;;;;0.60;0.60;;;17.80;96.10;;;;;;5014143;28;20425;-69
2022/10/08 10:58:19;;;;;;;0.97;0.63;;;17.80;95.80;;;;;;5009790;28;20426;-69
2022/10/08 11:00:59;;;;;;;2.70;1.23;;;17.70;95.80;;;;;;5014070;28;20436;-69
2022/10/08 11:04:13;;;;;;;0.83;0.83;;;17.80;96.40;;;;;;5014126;28;20441;-71
2022/10/08 11:06:50;;;;;;;0.50;0.50;;;17.70;96.70;;;;;;5004539;28;20521;-70
2022/10/08 11:09:47;;;;;;;0.60;0.60;;;17.60;96.70;;;;;;5013614;28;20458;-70
2022/10/08 11:12:30;;;;;;;1.00;1.00;;;17.60;96.30;;;;;;5013809;28;20391;-69
2022/10/08 11:15:15;;;;;;;0.50;0.50;;;17.50;96.80;;;;;;5014049;28;20812;-70
2022/10/08 11:18:11;;;;;;;0.80;0.80;;;17.40;96.70;;;;;;5013630;28;20859;-70
2022/10/08 11:21:02;;;;;;;0.60;0.60;;;17.40;97.20;;;;;;5013727;28;20399;-70
2022/10/08 11:23:46;;;;;;;0.90;0.90;;;17.40;97.10;;;;;;5013823;28;20403;-71
2022/10/08 11:26:43;;;;;;;0.50;0.50;;;17.50;97.20;;;;;;5013467;28;20480;-70
2022/10/08 11:29:30;;;;;;;0.60;0.60;;;17.50;96.90;;;;;;5013388;28;20751;-71
2022/10/08 11:31:56;;;;;;;1.00;1.00;;;17.60;97.10;;;;;;5013794;28;20427;-69
2022/10/08 11:34:32;;;;;;;0.60;0.60;;;17.40;95.80;;;;;;5013677;28;20765;-70
2022/10/08 11:37:04;;;;;;;1.53;1.53;;;17.30;96.40;;;;;;5013644;28;20517;-70
2022/10/08 11:39:41;;;;;;;1.77;1.60;;;17.40;96.80;;;;;;5013436;28;20402;-69
2022/10/08 11:42:31;;;;;;;1.13;0.70;;;17.60;96.70;;;;;;5013376;28;20903;-69
2022/10/08 11:45:12;;;;;;;0.50;0.50;;;17.80;96.20;;;;;;5013611;28;20413;-70
2022/10/08 11:47:41;;;;;;;2.00;0.87;;;17.90;95.80;;;;;;5013272;28;20448;-71
2022/10/08 11:50:35;;;;;;;0.70;0.70;;;18.00;95.50;;;;;;5013065;28;20588;-70
2022/10/08 11:53:04;;;;;;;0.53;0.53;;;17.80;95.40;;;;;;5014264;28;20399;-70
2022/10/08 11:55:31;;;;;;;0.73;0.73;;;17.40;95.40;;;;;;5017058;28;20764;-69
2022/10/08 11:58:06;;;;;;;0.50;0.50;;;17.30;96.30;;;;;;5016951;28;20414;-71
2022/10/08 12:00:37;;;;;;;0.50;0.50;;;17.40;96.80;;;;;;5016779;28;20421;-70
2022/10/08 12:03:25;;;;;;;0.90;0.43;;;17.40;95.90;;;;;;5017183;28;20403;-69
2022/10/08 12:05:54;;;;;;;0.90;0.90;;;17.70;96.30;;;;;;5016884;28;20434;-69
2022/10/08 12:08:49;;;;;;;1.10;1.00;;;17.90;96.30;;;;;;5016794;28;20443;-69
2022/10/08 12:11:39;;;;;;;0.70;0.70;;;18.00;95.00;;;;;;5016692;28;20515;-70
2022/10/08 12:14:14;;;;;;;0.77;0.77;;;18.00;95.40;;;;;;5015555;28;20406;-71
2022/10/08 12:16:55;;;;;;;0.73;0.73;;;18.10;95.00;;;;;;5016704;28;20505;-72
2022/10/08 12:19:33;;;;;;;0.50;0.50;;;18.40;94.10;;;;;;5016388;28;20412;-71
2022/10/08 12:22:16;;;;;;;1.57;0.70;;;18.50;94.60;;;;;;5016717;28;20487;-70
2022/10/08 12:24:45;;;;;;;2.17;1.10;;;18.40;95.60;;;;;;5016632;28;20903;-70
2022/10/08 12:27:16;;;;;;;0.63;0.63;;;18.50;94.00;;;;;;5016484;28;20430;-70
2022/10/08 12:30:13;;;;;;;0.50;0.50;;;18.70;93.80;;;;;;5016197;28;20463;-71
2022/10/08 12:32:38;;;;;;;0.90;0.90;;;18.80;92.60;;;;;;5015757;28;20779;-69
2022/10/08 12:35:15;;;;;;;0.80;0.67;;;18.90;92.80;;;;;;5016505;28;20413;-70
2022/10/08 12:37:53;;;;;;;0.67;0.67;;;19.00;91.80;;;;;;5016481;28;20225;-72
2022/10/08 12:40:31;;;;;;;1.13;1.03;;;19.00;91.80;;;;;;5014890;28;20789;-71
2022/10/08 12:43:24;;;;;;;0.80;0.80;;;19.00;92.10;;;;;;5016220;28;20418;-70
2022/10/08 12:45:57;;;;;;;0.87;0.60;;;19.00;91.20;;;;;;5016032;28;20464;-71
2022/10/08 12:48:33;;;;;;;1.57;0.60;;;18.60;90.30;;;;;;5016039;28;20407;-71
2022/10/08 12:51:17;;;;;;;1.27;0.90;;;18.50;90.50;;;;;;5015831;28;20453;-69
2022/10/08 12:53:44;;;;;;;0.70;0.70;;;18.30;91.00;;;;;;5016098;28;20400;-70
2022/10/08 12:56:19;;;;;;;0.60;0.60;;;18.10;91.50;;;;;;5016086;28;20426;-70
2022/10/08 12:58:46;;;;;;;0.97;0.97;;;18.10;91.00;;;;;;5015858;28;20397;-71
2022/10/08 13:01:15;;;;;;;0.63;0.63;;;18.00;92.00;;;;;;5015793;28;20411;-70
2022/10/08 13:03:41;;;;;;;1.80;1.07;;;17.90;92.10;;;;;;5015645;28;20517;-72
2022/10/08 13:06:15;;;;;;;0.83;0.83;;;17.90;91.00;;;;;;5013447;28;20541;-68
2022/10/08 13:08:41;;;;;;;1.00;0.60;;;17.70;91.70;;;;;;5015939;28;20163;-69
2022/10/08 13:11:12;;;;;;;0.80;0.80;;;17.50;91.80;;;;;;5014313;28;20455;-70
2022/10/08 13:13:38;;;;;;;0.80;0.70;;;17.50;91.10;;;;;;5015776;28;20402;-69
2022/10/08 13:16:06;;;;;;;0.90;0.80;;;17.50;91.80;;;;;;5015650;28;20541;-70